TAM3089 SBFL-SBSP
Flight info
| Callsign | TAM3089 |
|---|---|
| Flight time | 0h 44m |
| Altitude | 33000 |
| Route | UBROS UM540 ANISE |
| Aircraft | A320/M-SDE3FGHIRWY/LB1 |
Departure
| Time | 2026-04-26 10:41 |
|---|---|
| Airport | Hercílio Luz International Airport (SBFL) |
Arrival
| Time | 2026-04-26 11:26 |
|---|---|
| Airport | Congonhas–Deputado Freitas Nobre Airport (SBSP) |
| Time | Latitude | Longitude | Altitude | Speed | Heading |
|---|---|---|---|---|---|
| 2026-04-26 10:15 | -27.67245 | -48.54612 | 27 ft | 0 kts | 212° |
| 2026-04-26 10:33 | -27.67230 | -48.54600 | 27 ft | 3 kts | 223° |
| 2026-04-26 10:33 | -27.67217 | -48.54583 | 27 ft | 3 kts | 257° |
| 2026-04-26 10:33 | -27.67218 | -48.54565 | 27 ft | 1 kts | 301° |
| 2026-04-26 10:36 | -27.67212 | -48.54576 | 27 ft | 1 kts | 301° |
| 2026-04-26 10:36 | -27.67211 | -48.54577 | 27 ft | 0 kts | 301° |
| 2026-04-26 10:36 | -27.67196 | -48.54604 | 27 ft | 4 kts | 308° |
| 2026-04-26 10:36 | -27.67174 | -48.54618 | 27 ft | 5 kts | 334° |
| 2026-04-26 10:37 | -27.67121 | -48.54617 | 27 ft | 11 kts | 16° |
| 2026-04-26 10:37 | -27.67053 | -48.54595 | 27 ft | 9 kts | 346° |
| 2026-04-26 10:37 | -27.67010 | -48.54665 | 27 ft | 13 kts | 301° |
| 2026-04-26 10:37 | -27.66964 | -48.54750 | 27 ft | 13 kts | 301° |
| 2026-04-26 10:38 | -27.66925 | -48.54821 | 27 ft | 9 kts | 301° |
| 2026-04-26 10:38 | -27.66882 | -48.54902 | 27 ft | 15 kts | 301° |
| 2026-04-26 10:38 | -27.66835 | -48.54990 | 27 ft | 12 kts | 301° |
| 2026-04-26 10:38 | -27.66794 | -48.55069 | 27 ft | 12 kts | 301° |
| 2026-04-26 10:39 | -27.66738 | -48.55115 | 27 ft | 8 kts | 345° |
| 2026-04-26 10:39 | -27.66699 | -48.55125 | 27 ft | 4 kts | 347° |
| 2026-04-26 10:39 | -27.66650 | -48.55138 | 27 ft | 13 kts | 348° |
| 2026-04-26 10:39 | -27.66579 | -48.55112 | 26 ft | 8 kts | 53° |
| 2026-04-26 10:40 | -27.66582 | -48.55096 | 29 ft | 0 kts | 120° |
| 2026-04-26 10:41 | -27.66734 | -48.54817 | 27 ft | 89 kts | 122° |
| 2026-04-26 10:41 | -27.67202 | -48.53944 | 32 ft | 168 kts | 120° |
| 2026-04-26 10:41 | -27.67858 | -48.52747 | 729 ft | 183 kts | 120° |
| 2026-04-26 10:41 | -27.68512 | -48.51503 | 1792 ft | 185 kts | 119° |
| 2026-04-26 10:42 | -27.69003 | -48.50130 | 2547 ft | 196 kts | 93° |
| 2026-04-26 10:42 | -27.68695 | -48.48587 | 2974 ft | 214 kts | 54° |
| 2026-04-26 10:42 | -27.67582 | -48.47453 | 3714 ft | 220 kts | 30° |
| 2026-04-26 10:42 | -27.66283 | -48.46509 | 4608 ft | 225 kts | 28° |
| 2026-04-26 10:43 | -27.64953 | -48.45539 | 5439 ft | 231 kts | 28° |
| 2026-04-26 10:43 | -27.63593 | -48.44544 | 5871 ft | 233 kts | 28° |
| 2026-04-26 10:43 | -27.62240 | -48.43547 | 5973 ft | 232 kts | 28° |
| 2026-04-26 10:43 | -27.60892 | -48.42551 | 6005 ft | 232 kts | 28° |
| 2026-04-26 10:44 | -27.59542 | -48.41556 | 6007 ft | 232 kts | 28° |
| 2026-04-26 10:44 | -27.58193 | -48.40559 | 6008 ft | 232 kts | 28° |
| 2026-04-26 10:44 | -27.56844 | -48.39565 | 6008 ft | 232 kts | 28° |
| 2026-04-26 10:44 | -27.55496 | -48.38573 | 6007 ft | 231 kts | 28° |
| 2026-04-26 10:45 | -27.54124 | -48.37647 | 6008 ft | 228 kts | 18° |
| 2026-04-26 10:45 | -27.52582 | -48.36959 | 6219 ft | 251 kts | 17° |
| 2026-04-26 10:45 | -27.50884 | -48.36210 | 6763 ft | 270 kts | 17° |
| 2026-04-26 10:45 | -27.49110 | -48.35421 | 7555 ft | 277 kts | 17° |
| 2026-04-26 10:46 | -27.47302 | -48.34612 | 8412 ft | 282 kts | 16° |
| 2026-04-26 10:46 | -27.45460 | -48.33789 | 9286 ft | 287 kts | 16° |
| 2026-04-26 10:46 | -27.43584 | -48.32953 | 10075 ft | 294 kts | 15° |
| 2026-04-26 10:46 | -27.41600 | -48.32080 | 10398 ft | 318 kts | 15° |
| 2026-04-26 10:47 | -27.39520 | -48.31161 | 10934 ft | 331 kts | 16° |
| 2026-04-26 10:47 | -27.37363 | -48.30194 | 11683 ft | 336 kts | 16° |
| 2026-04-26 10:47 | -27.35181 | -48.29210 | 12498 ft | 339 kts | 15° |
| 2026-04-26 10:47 | -27.32981 | -48.28217 | 13287 ft | 343 kts | 15° |
| 2026-04-26 10:48 | -27.30751 | -48.27216 | 13978 ft | 348 kts | 14° |
| 2026-04-26 10:48 | -27.28484 | -48.26206 | 14607 ft | 353 kts | 14° |
| 2026-04-26 10:48 | -27.26187 | -48.25185 | 15223 ft | 358 kts | 14° |
| 2026-04-26 10:48 | -27.23857 | -48.24150 | 15832 ft | 363 kts | 14° |
| 2026-04-26 10:49 | -27.21496 | -48.23101 | 16451 ft | 367 kts | 14° |
| 2026-04-26 10:49 | -27.19106 | -48.22039 | 17059 ft | 372 kts | 14° |
| 2026-04-26 10:49 | -27.16683 | -48.20962 | 17662 ft | 377 kts | 14° |
| 2026-04-26 10:49 | -27.14230 | -48.19873 | 18248 ft | 382 kts | 14° |
| 2026-04-26 10:50 | -27.11746 | -48.18771 | 18765 ft | 386 kts | 14° |
| 2026-04-26 10:50 | -27.10084 | -48.18034 | 19122 ft | 389 kts | 14° |
| 2026-04-26 10:50 | -27.06689 | -48.16526 | 19765 ft | 396 kts | 14° |
| 2026-04-26 10:50 | -27.04116 | -48.15383 | 20278 ft | 400 kts | 15° |
| 2026-04-26 10:51 | -27.01515 | -48.14227 | 20766 ft | 404 kts | 15° |
| 2026-04-26 10:51 | -26.96236 | -48.11889 | 21742 ft | 412 kts | 15° |
| 2026-04-26 10:51 | -26.93556 | -48.10704 | 22217 ft | 416 kts | 15° |
| 2026-04-26 10:52 | -26.90851 | -48.09509 | 22690 ft | 420 kts | 15° |
| 2026-04-26 10:52 | -26.88122 | -48.08303 | 23163 ft | 424 kts | 15° |
| 2026-04-26 10:52 | -26.85367 | -48.07086 | 23603 ft | 428 kts | 15° |
| 2026-04-26 10:52 | -26.82589 | -48.05861 | 23976 ft | 431 kts | 14° |
| 2026-04-26 10:53 | -26.79794 | -48.04633 | 24397 ft | 432 kts | 14° |
| 2026-04-26 10:53 | -26.76987 | -48.03399 | 24793 ft | 434 kts | 14° |
| 2026-04-26 10:53 | -26.74166 | -48.02161 | 25188 ft | 437 kts | 14° |
| 2026-04-26 10:54 | -26.68485 | -47.99665 | 25984 ft | 441 kts | 13° |
| 2026-04-26 10:54 | -26.66593 | -47.98831 | 26242 ft | 442 kts | 13° |
| 2026-04-26 10:54 | -26.63724 | -47.97567 | 26624 ft | 444 kts | 13° |
| 2026-04-26 10:54 | -26.60841 | -47.96301 | 26997 ft | 447 kts | 12° |
| 2026-04-26 10:55 | -26.57939 | -47.95027 | 27363 ft | 449 kts | 12° |
| 2026-04-26 10:55 | -26.55022 | -47.93744 | 27728 ft | 452 kts | 12° |
| 2026-04-26 10:55 | -26.52093 | -47.92458 | 28095 ft | 454 kts | 12° |
| 2026-04-26 10:55 | -26.49146 | -47.91169 | 28455 ft | 456 kts | 12° |
| 2026-04-26 10:56 | -26.46181 | -47.89876 | 28813 ft | 458 kts | 12° |
| 2026-04-26 10:56 | -26.43204 | -47.88575 | 29172 ft | 461 kts | 12° |
| 2026-04-26 10:56 | -26.40210 | -47.87268 | 29524 ft | 463 kts | 11° |
| 2026-04-26 10:56 | -26.37200 | -47.85956 | 29874 ft | 466 kts | 11° |
| 2026-04-26 10:57 | -26.34176 | -47.84640 | 30182 ft | 468 kts | 11° |
| 2026-04-26 10:57 | -26.31142 | -47.83315 | 30475 ft | 470 kts | 11° |
| 2026-04-26 10:57 | -26.28095 | -47.81978 | 30766 ft | 471 kts | 12° |
| 2026-04-26 10:57 | -26.25040 | -47.80639 | 31076 ft | 472 kts | 12° |
| 2026-04-26 10:58 | -26.21977 | -47.79304 | 31362 ft | 473 kts | 12° |
| 2026-04-26 10:58 | -26.18908 | -47.77969 | 31674 ft | 474 kts | 12° |
| 2026-04-26 10:58 | -26.15842 | -47.76637 | 32098 ft | 472 kts | 12° |
| 2026-04-26 10:58 | -26.12815 | -47.75198 | 32533 ft | 478 kts | 18° |
| 2026-04-26 10:59 | -26.09956 | -47.73227 | 32858 ft | 488 kts | 26° |
| 2026-04-26 10:59 | -26.07200 | -47.71037 | 32931 ft | 482 kts | 26° |
| 2026-04-26 10:59 | -26.04528 | -47.68891 | 32938 ft | 468 kts | 26° |
| 2026-04-26 10:59 | -26.01908 | -47.66784 | 32943 ft | 462 kts | 26° |
| 2026-04-26 11:00 | -25.96697 | -47.62635 | 32947 ft | 460 kts | 26° |
| 2026-04-26 11:00 | -25.91475 | -47.58516 | 32940 ft | 460 kts | 26° |
| 2026-04-26 11:01 | -25.86247 | -47.54391 | 32942 ft | 461 kts | 26° |
| 2026-04-26 11:01 | -25.80934 | -47.50209 | 32941 ft | 478 kts | 26° |
| 2026-04-26 11:02 | -25.75400 | -47.45856 | 32944 ft | 496 kts | 27° |
| 2026-04-26 11:02 | -25.69744 | -47.41377 | 32942 ft | 501 kts | 27° |
| 2026-04-26 11:03 | -25.64064 | -47.36875 | 32940 ft | 502 kts | 27° |
| 2026-04-26 11:03 | -25.58414 | -47.32419 | 32943 ft | 502 kts | 27° |
| 2026-04-26 11:04 | -25.52720 | -47.27947 | 32937 ft | 502 kts | 27° |
| 2026-04-26 11:04 | -25.47024 | -47.23480 | 32936 ft | 502 kts | 27° |
| 2026-04-26 11:05 | -25.41331 | -47.19020 | 32931 ft | 502 kts | 27° |
| 2026-04-26 11:05 | -25.35636 | -47.14558 | 32904 ft | 501 kts | 28° |
| 2026-04-26 11:06 | -25.29944 | -47.10101 | 32921 ft | 501 kts | 28° |
| 2026-04-26 11:06 | -25.24249 | -47.05652 | 32931 ft | 501 kts | 28° |
| 2026-04-26 11:07 | -25.18552 | -47.01209 | 32933 ft | 501 kts | 28° |
| 2026-04-26 11:07 | -25.12832 | -46.96817 | 32929 ft | 499 kts | 26° |
| 2026-04-26 11:08 | -25.06940 | -46.92825 | 32938 ft | 495 kts | 22° |
| 2026-04-26 11:08 | -25.00965 | -46.89079 | 32936 ft | 494 kts | 22° |
| 2026-04-26 11:09 | -24.95014 | -46.85297 | 32944 ft | 494 kts | 23° |
| 2026-04-26 11:09 | -24.89110 | -46.81421 | 32950 ft | 494 kts | 24° |
| 2026-04-26 11:10 | -24.86165 | -46.79473 | 32335 ft | 495 kts | 24° |
| 2026-04-26 11:10 | -24.83178 | -46.77510 | 31100 ft | 504 kts | 24° |
| 2026-04-26 11:10 | -24.80146 | -46.75531 | 29884 ft | 506 kts | 24° |
| 2026-04-26 11:10 | -24.77111 | -46.73552 | 27923 ft | 510 kts | 24° |
| 2026-04-26 11:11 | -24.74049 | -46.71559 | 25936 ft | 513 kts | 25° |
| 2026-04-26 11:11 | -24.70977 | -46.69556 | 24282 ft | 510 kts | 25° |
| 2026-04-26 11:11 | -24.67954 | -46.67577 | 22718 ft | 502 kts | 26° |
| 2026-04-26 11:11 | -24.64984 | -46.65630 | 21194 ft | 492 kts | 26° |
| 2026-04-26 11:12 | -24.61986 | -46.63943 | 19780 ft | 476 kts | 17° |
| 2026-04-26 11:12 | -24.58869 | -46.62917 | 18507 ft | 461 kts | 7° |
| 2026-04-26 11:12 | -24.55763 | -46.62559 | 17687 ft | 438 kts | 356° |
| 2026-04-26 11:12 | -24.52743 | -46.62580 | 17304 ft | 432 kts | 355° |
| 2026-04-26 11:13 | -24.49747 | -46.62590 | 17105 ft | 430 kts | 356° |
| 2026-04-26 11:13 | -24.46761 | -46.62585 | 16339 ft | 427 kts | 356° |
| 2026-04-26 11:13 | -24.43830 | -46.62574 | 14788 ft | 427 kts | 356° |
| 2026-04-26 11:13 | -24.40887 | -46.62562 | 13792 ft | 415 kts | 356° |
| 2026-04-26 11:14 | -24.38005 | -46.62553 | 13500 ft | 407 kts | 356° |
| 2026-04-26 11:14 | -24.35187 | -46.62552 | 12896 ft | 403 kts | 356° |
| 2026-04-26 11:14 | -24.32395 | -46.62553 | 12212 ft | 399 kts | 356° |
| 2026-04-26 11:14 | -24.29636 | -46.62554 | 11545 ft | 395 kts | 357° |
| 2026-04-26 11:15 | -24.26912 | -46.62556 | 11053 ft | 386 kts | 357° |
| 2026-04-26 11:15 | -24.24290 | -46.62557 | 10918 ft | 368 kts | 357° |
| 2026-04-26 11:15 | -24.21792 | -46.62557 | 10799 ft | 350 kts | 357° |
| 2026-04-26 11:15 | -24.19408 | -46.62556 | 10688 ft | 335 kts | 357° |
| 2026-04-26 11:16 | -24.17121 | -46.62559 | 10564 ft | 322 kts | 356° |
| 2026-04-26 11:16 | -24.14922 | -46.62562 | 10453 ft | 310 kts | 356° |
| 2026-04-26 11:16 | -24.12831 | -46.62564 | 10297 ft | 300 kts | 356° |
| 2026-04-26 11:16 | -24.10761 | -46.62567 | 10139 ft | 294 kts | 356° |
| 2026-04-26 11:17 | -24.08714 | -46.62571 | 10040 ft | 294 kts | 356° |
| 2026-04-26 11:17 | -24.06670 | -46.62576 | 9854 ft | 294 kts | 356° |
| 2026-04-26 11:17 | -24.04621 | -46.62584 | 9486 ft | 293 kts | 357° |
| 2026-04-26 11:17 | -24.02595 | -46.62588 | 9157 ft | 290 kts | 357° |
| 2026-04-26 11:18 | -24.00580 | -46.62588 | 8850 ft | 289 kts | 357° |
| 2026-04-26 11:18 | -23.98579 | -46.62588 | 8524 ft | 286 kts | 357° |
| 2026-04-26 11:18 | -23.96602 | -46.62587 | 8170 ft | 284 kts | 357° |
| 2026-04-26 11:18 | -23.94631 | -46.62589 | 7813 ft | 282 kts | 357° |
| 2026-04-26 11:19 | -23.92678 | -46.62592 | 7502 ft | 280 kts | 357° |
| 2026-04-26 11:19 | -23.90737 | -46.62595 | 7190 ft | 278 kts | 357° |
| 2026-04-26 11:19 | -23.88814 | -46.62516 | 6945 ft | 278 kts | 7° |
| 2026-04-26 11:19 | -23.87008 | -46.61759 | 6645 ft | 281 kts | 31° |
| 2026-04-26 11:20 | -23.85594 | -46.60282 | 6308 ft | 285 kts | 53° |
| 2026-04-26 11:20 | -23.84993 | -46.59004 | 6073 ft | 287 kts | 69° |
| 2026-04-26 11:20 | -23.84064 | -46.56376 | 5904 ft | 267 kts | 53° |
| 2026-04-26 11:20 | -23.82814 | -46.54995 | 5795 ft | 249 kts | 28° |
| 2026-04-26 11:21 | -23.81277 | -46.54301 | 5661 ft | 233 kts | 7° |
| 2026-04-26 11:21 | -23.79704 | -46.54274 | 5495 ft | 221 kts | 346° |
| 2026-04-26 11:21 | -23.78300 | -46.54819 | 5375 ft | 209 kts | 328° |
| 2026-04-26 11:21 | -23.77096 | -46.55645 | 5267 ft | 199 kts | 326° |
| 2026-04-26 11:22 | -23.75962 | -46.56432 | 5101 ft | 188 kts | 326° |
| 2026-04-26 11:22 | -23.74888 | -46.57178 | 4938 ft | 178 kts | 326° |
| 2026-04-26 11:22 | -23.73868 | -46.57885 | 4786 ft | 168 kts | 326° |
| 2026-04-26 11:22 | -23.72919 | -46.58543 | 4672 ft | 153 kts | 326° |
| 2026-04-26 11:23 | -23.72047 | -46.59148 | 4586 ft | 146 kts | 326° |
| 2026-04-26 11:23 | -23.71206 | -46.59731 | 4450 ft | 142 kts | 326° |
| 2026-04-26 11:23 | -23.70377 | -46.60306 | 4272 ft | 141 kts | 326° |
| 2026-04-26 11:23 | -23.69552 | -46.60877 | 4099 ft | 140 kts | 326° |
| 2026-04-26 11:24 | -23.68734 | -46.61444 | 3939 ft | 138 kts | 326° |
| 2026-04-26 11:24 | -23.67927 | -46.62004 | 3756 ft | 137 kts | 326° |
| 2026-04-26 11:24 | -23.67124 | -46.62559 | 3573 ft | 136 kts | 327° |
| 2026-04-26 11:24 | -23.66327 | -46.63112 | 3389 ft | 136 kts | 327° |
| 2026-04-26 11:25 | -23.65528 | -46.63667 | 3227 ft | 136 kts | 328° |
| 2026-04-26 11:25 | -23.64728 | -46.64234 | 2950 ft | 136 kts | 330° |
| 2026-04-26 11:25 | -23.63916 | -46.64785 | 2728 ft | 138 kts | 328° |
| 2026-04-26 11:25 | -23.63118 | -46.65332 | 2612 ft | 125 kts | 327° |
| 2026-04-26 11:26 | -23.62627 | -46.65674 | 2605 ft | 41 kts | 327° |
| 2026-04-26 11:26 | -23.62387 | -46.65840 | 2602 ft | 37 kts | 328° |
| 2026-04-26 11:26 | -23.62217 | -46.65959 | 2600 ft | 14 kts | 327° |
| 2026-04-26 11:26 | -23.62223 | -46.66035 | 2599 ft | 12 kts | 200° |
| 2026-04-26 11:27 | -23.62292 | -46.66013 | 2600 ft | 10 kts | 147° |
| 2026-04-26 11:27 | -23.62345 | -46.65976 | 2600 ft | 8 kts | 147° |
| 2026-04-26 11:27 | -23.62389 | -46.65946 | 2601 ft | 7 kts | 148° |
| 2026-04-26 11:27 | -23.62425 | -46.65921 | 2601 ft | 6 kts | 147° |
| 2026-04-26 11:28 | -23.62466 | -46.65897 | 2601 ft | 2 kts | 176° |
| 2026-04-26 11:28 | -23.62491 | -46.65931 | 2601 ft | 6 kts | 237° |
| 2026-04-26 11:28 | -23.62507 | -46.65959 | 2600 ft | 2 kts | 237° |
| 2026-04-26 11:28 | -23.62511 | -46.65966 | 2600 ft | 0 kts | 237° |